sensor_id;sensor_type;location;lat;lon;timestamp;temperature;humidity
73777;DHT22;62088;50.240;2.696;2022-09-03T00:01:27;18.90;75.70
73777;DHT22;62088;50.240;2.696;2022-09-03T00:04:02;18.90;75.70
73777;DHT22;62088;50.240;2.696;2022-09-03T00:06:37;18.90;75.60
73777;DHT22;62088;50.240;2.696;2022-09-03T00:09:12;18.90;75.60
73777;DHT22;62088;50.240;2.696;2022-09-03T00:12:15;18.80;75.50
73777;DHT22;62088;50.240;2.696;2022-09-03T00:15:06;18.80;75.40
73777;DHT22;62088;50.240;2.696;2022-09-03T00:20:18;18.80;75.30
73777;DHT22;62088;50.240;2.696;2022-09-03T00:22:51;18.70;75.30
73777;DHT22;62088;50.240;2.696;2022-09-03T00:25:43;18.70;75.30
73777;DHT22;62088;50.240;2.696;2022-09-03T00:28:18;18.70;75.20
73777;DHT22;62088;50.240;2.696;2022-09-03T00:30:50;18.70;75.20
73777;DHT22;62088;50.240;2.696;2022-09-03T00:33:22;18.60;75.20
73777;DHT22;62088;50.240;2.696;2022-09-03T00:39:20;18.60;75.20
73777;DHT22;62088;50.240;2.696;2022-09-03T00:48:19;18.50;75.10
73777;DHT22;62088;50.240;2.696;2022-09-03T00:50:34;18.50;75.10
73777;DHT22;62088;50.240;2.696;2022-09-03T00:53:32;18.40;75.00
73777;DHT22;62088;50.240;2.696;2022-09-03T00:59:30;18.40;75.00
73777;DHT22;62088;50.240;2.696;2022-09-03T01:09:43;18.30;75.00
73777;DHT22;62088;50.240;2.696;2022-09-03T01:13:13;18.20;74.90
73777;DHT22;62088;50.240;2.696;2022-09-03T01:18:14;18.20;74.90
73777;DHT22;62088;50.240;2.696;2022-09-03T01:21:25;18.20;74.90
73777;DHT22;62088;50.240;2.696;2022-09-03T01:37:46;18.00;75.00
73777;DHT22;62088;50.240;2.696;2022-09-03T01:45:57;17.90;75.30
73777;DHT22;62088;50.240;2.696;2022-09-03T01:48:43;17.90;75.40
73777;DHT22;62088;50.240;2.696;2022-09-03T01:51:21;17.90;75.50
73777;DHT22;62088;50.240;2.696;2022-09-03T02:02:10;17.90;75.80
73777;DHT22;62088;50.240;2.696;2022-09-03T02:07:31;17.90;75.90
73777;DHT22;62088;50.240;2.696;2022-09-03T02:10:05;17.90;76.00
73777;DHT22;62088;50.240;2.696;2022-09-03T02:12:34;17.90;76.10
73777;DHT22;62088;50.240;2.696;2022-09-03T02:15:09;17.90;76.20
73777;DHT22;62088;50.240;2.696;2022-09-03T02:17:37;17.90;76.20
73777;DHT22;62088;50.240;2.696;2022-09-03T02:20:09;17.90;76.30
73777;DHT22;62088;50.240;2.696;2022-09-03T02:22:38;17.90;76.30
73777;DHT22;62088;50.240;2.696;2022-09-03T02:25:07;17.90;76.30
73777;DHT22;62088;50.240;2.696;2022-09-03T02:27:34;17.90;76.30
73777;DHT22;62088;50.240;2.696;2022-09-03T02:30:01;17.90;76.30
73777;DHT22;62088;50.240;2.696;2022-09-03T02:32:28;17.90;76.40
73777;DHT22;62088;50.240;2.696;2022-09-03T02:34:55;17.90;76.40
73777;DHT22;62088;50.240;2.696;2022-09-03T02:37:22;17.90;76.40
73777;DHT22;62088;50.240;2.696;2022-09-03T02:39:49;17.90;76.40
73777;DHT22;62088;50.240;2.696;2022-09-03T02:42:18;17.90;76.40
73777;DHT22;62088;50.240;2.696;2022-09-03T02:45:01;17.90;76.40
73777;DHT22;62088;50.240;2.696;2022-09-03T02:47:30;17.90;76.40
73777;DHT22;62088;50.240;2.696;2022-09-03T02:49:58;17.90;76.40
73777;DHT22;62088;50.240;2.696;2022-09-03T02:52:25;17.90;76.40
73777;DHT22;62088;50.240;2.696;2022-09-03T02:54:52;17.90;76.40
73777;DHT22;62088;50.240;2.696;2022-09-03T02:57:19;17.90;76.40
73777;DHT22;62088;50.240;2.696;2022-09-03T02:59:53;17.90;76.40
73777;DHT22;62088;50.240;2.696;2022-09-03T03:02:20;17.90;76.30
73777;DHT22;62088;50.240;2.696;2022-09-03T03:04:48;17.80;76.30
73777;DHT22;62088;50.240;2.696;2022-09-03T03:07:15;17.80;76.30
73777;DHT22;62088;50.240;2.696;2022-09-03T03:09:42;17.80;76.30
73777;DHT22;62088;50.240;2.696;2022-09-03T03:12:09;17.80;76.20
73777;DHT22;62088;50.240;2.696;2022-09-03T03:14:36;17.70;76.20
73777;DHT22;62088;50.240;2.696;2022-09-03T03:17:04;17.80;76.20
73777;DHT22;62088;50.240;2.696;2022-09-03T03:19:31;17.70;76.20
73777;DHT22;62088;50.240;2.696;2022-09-03T03:21:58;17.70;76.20
73777;DHT22;62088;50.240;2.696;2022-09-03T03:24:25;17.70;76.10
73777;DHT22;62088;50.240;2.696;2022-09-03T03:26:55;17.70;76.20
73777;DHT22;62088;50.240;2.696;2022-09-03T03:29:23;17.70;76.20
73777;DHT22;62088;50.240;2.696;2022-09-03T03:31:51;17.60;76.30
73777;DHT22;62088;50.240;2.696;2022-09-03T03:34:18;17.60;76.30
73777;DHT22;62088;50.240;2.696;2022-09-03T03:36:45;17.60;76.30
73777;DHT22;62088;50.240;2.696;2022-09-03T03:39:13;17.60;76.40
73777;DHT22;62088;50.240;2.696;2022-09-03T03:41:40;17.60;76.40
73777;DHT22;62088;50.240;2.696;2022-09-03T03:44:07;17.60;76.40
73777;DHT22;62088;50.240;2.696;2022-09-03T03:46:38;17.60;76.50
73777;DHT22;62088;50.240;2.696;2022-09-03T03:49:06;17.60;76.60
73777;DHT22;62088;50.240;2.696;2022-09-03T03:51:34;17.60;76.60
73777;DHT22;62088;50.240;2.696;2022-09-03T03:54:02;17.50;76.70
73777;DHT22;62088;50.240;2.696;2022-09-03T03:56:32;17.50;76.70
73777;DHT22;62088;50.240;2.696;2022-09-03T03:58:59;17.50;76.80
73777;DHT22;62088;50.240;2.696;2022-09-03T04:01:27;17.50;76.80
73777;DHT22;62088;50.240;2.696;2022-09-03T04:03:55;17.50;76.80
73777;DHT22;62088;50.240;2.696;2022-09-03T04:06:23;17.50;76.90
73777;DHT22;62088;50.240;2.696;2022-09-03T04:08:50;17.50;76.90
73777;DHT22;62088;50.240;2.696;2022-09-03T04:11:19;17.50;76.90
73777;DHT22;62088;50.240;2.696;2022-09-03T04:13:48;17.50;76.90
73777;DHT22;62088;50.240;2.696;2022-09-03T04:16:20;17.50;77.00
73777;DHT22;62088;50.240;2.696;2022-09-03T04:18:48;17.50;77.10
73777;DHT22;62088;50.240;2.696;2022-09-03T04:21:18;17.50;77.10
73777;DHT22;62088;50.240;2.696;2022-09-03T04:23:46;17.50;77.10
73777;DHT22;62088;50.240;2.696;2022-09-03T04:26:16;17.50;77.10
73777;DHT22;62088;50.240;2.696;2022-09-03T04:28:43;17.50;77.20
73777;DHT22;62088;50.240;2.696;2022-09-03T04:31:12;17.50;77.20
73777;DHT22;62088;50.240;2.696;2022-09-03T04:33:40;17.50;77.30
73777;DHT22;62088;50.240;2.696;2022-09-03T04:36:14;17.40;77.30
73777;DHT22;62088;50.240;2.696;2022-09-03T04:38:44;17.50;77.30
73777;DHT22;62088;50.240;2.696;2022-09-03T04:41:14;17.50;77.40
73777;DHT22;62088;50.240;2.696;2022-09-03T04:43:41;17.50;77.50
73777;DHT22;62088;50.240;2.696;2022-09-03T04:46:11;17.50;77.50
73777;DHT22;62088;50.240;2.696;2022-09-03T04:48:46;17.50;77.50
73777;DHT22;62088;50.240;2.696;2022-09-03T04:51:15;17.40;77.50
73777;DHT22;62088;50.240;2.696;2022-09-03T04:53:45;17.50;77.60
73777;DHT22;62088;50.240;2.696;2022-09-03T04:56:17;17.50;77.60
73777;DHT22;62088;50.240;2.696;2022-09-03T04:58:45;17.40;77.60
73777;DHT22;62088;50.240;2.696;2022-09-03T05:01:19;17.40;77.50
73777;DHT22;62088;50.240;2.696;2022-09-03T05:03:47;17.50;77.50
73777;DHT22;62088;50.240;2.696;2022-09-03T05:06:14;17.50;77.60
73777;DHT22;62088;50.240;2.696;2022-09-03T05:08:50;17.50;77.60
73777;DHT22;62088;50.240;2.696;2022-09-03T05:11:18;17.50;77.60
73777;DHT22;62088;50.240;2.696;2022-09-03T05:13:49;17.50;77.60
73777;DHT22;62088;50.240;2.696;2022-09-03T05:16:17;17.50;77.60
73777;DHT22;62088;50.240;2.696;2022-09-03T05:18:45;17.40;77.60
73777;DHT22;62088;50.240;2.696;2022-09-03T05:21:14;17.40;77.60
73777;DHT22;62088;50.240;2.696;2022-09-03T05:23:44;17.40;77.70
73777;DHT22;62088;50.240;2.696;2022-09-03T05:26:14;17.40;77.70
73777;DHT22;62088;50.240;2.696;2022-09-03T05:28:42;17.40;77.70
73777;DHT22;62088;50.240;2.696;2022-09-03T05:31:14;17.40;77.70
73777;DHT22;62088;50.240;2.696;2022-09-03T05:33:44;17.40;77.80
73777;DHT22;62088;50.240;2.696;2022-09-03T05:36:14;17.40;77.80
73777;DHT22;62088;50.240;2.696;2022-09-03T05:38:42;17.40;77.80
73777;DHT22;62088;50.240;2.696;2022-09-03T05:41:11;17.40;77.90
73777;DHT22;62088;50.240;2.696;2022-09-03T05:43:38;17.40;77.90
73777;DHT22;62088;50.240;2.696;2022-09-03T05:46:07;17.40;77.80
73777;DHT22;62088;50.240;2.696;2022-09-03T05:48:36;17.40;77.90
73777;DHT22;62088;50.240;2.696;2022-09-03T05:51:09;17.40;77.90
73777;DHT22;62088;50.240;2.696;2022-09-03T05:53:38;17.40;78.00
73777;DHT22;62088;50.240;2.696;2022-09-03T05:56:08;17.40;78.10
73777;DHT22;62088;50.240;2.696;2022-09-03T05:58:42;17.40;78.10
73777;DHT22;62088;50.240;2.696;2022-09-03T06:06:22;17.40;78.30
73777;DHT22;62088;50.240;2.696;2022-09-03T06:08:53;17.40;78.40
73777;DHT22;62088;50.240;2.696;2022-09-03T06:11:21;17.40;78.40
73777;DHT22;62088;50.240;2.696;2022-09-03T06:13:55;17.50;78.40
73777;DHT22;62088;50.240;2.696;2022-09-03T06:16:23;17.50;78.50
73777;DHT22;62088;50.240;2.696;2022-09-03T06:19:02;17.50;78.40
73777;DHT22;62088;50.240;2.696;2022-09-03T06:21:29;17.50;78.50
73777;DHT22;62088;50.240;2.696;2022-09-03T06:23:56;17.50;78.50
73777;DHT22;62088;50.240;2.696;2022-09-03T06:26:26;17.50;78.60
73777;DHT22;62088;50.240;2.696;2022-09-03T06:28:55;17.50;78.60
73777;DHT22;62088;50.240;2.696;2022-09-03T06:31:23;17.50;78.70
73777;DHT22;62088;50.240;2.696;2022-09-03T06:33:50;17.60;78.80
73777;DHT22;62088;50.240;2.696;2022-09-03T06:36:19;17.60;78.80
73777;DHT22;62088;50.240;2.696;2022-09-03T06:38:47;17.60;79.00
73777;DHT22;62088;50.240;2.696;2022-09-03T06:41:18;17.60;79.00
73777;DHT22;62088;50.240;2.696;2022-09-03T06:43:47;17.60;79.10
73777;DHT22;62088;50.240;2.696;2022-09-03T06:46:17;17.60;79.30
73777;DHT22;62088;50.240;2.696;2022-09-03T06:48:45;17.70;79.50
73777;DHT22;62088;50.240;2.696;2022-09-03T06:51:18;17.70;79.60
73777;DHT22;62088;50.240;2.696;2022-09-03T06:53:51;17.70;79.60
73777;DHT22;62088;50.240;2.696;2022-09-03T06:56:20;17.70;79.60
73777;DHT22;62088;50.240;2.696;2022-09-03T06:58:57;17.80;79.70
73777;DHT22;62088;50.240;2.696;2022-09-03T07:01:29;17.80;79.80
73777;DHT22;62088;50.240;2.696;2022-09-03T07:04:01;17.90;79.90
73777;DHT22;62088;50.240;2.696;2022-09-03T07:06:31;17.90;80.00
73777;DHT22;62088;50.240;2.696;2022-09-03T07:08:58;17.90;80.10
73777;DHT22;62088;50.240;2.696;2022-09-03T07:11:27;17.90;80.10
73777;DHT22;62088;50.240;2.696;2022-09-03T07:13:57;17.90;80.20
73777;DHT22;62088;50.240;2.696;2022-09-03T07:16:32;17.90;80.30
73777;DHT22;62088;50.240;2.696;2022-09-03T07:19:00;18.00;80.50
73777;DHT22;62088;50.240;2.696;2022-09-03T07:21:30;18.10;80.60
73777;DHT22;62088;50.240;2.696;2022-09-03T07:23:57;18.10;80.50
73777;DHT22;62088;50.240;2.696;2022-09-03T07:26:27;18.10;80.50
73777;DHT22;62088;50.240;2.696;2022-09-03T07:28:54;18.20;80.60
73777;DHT22;62088;50.240;2.696;2022-09-03T07:31:30;18.30;80.70
73777;DHT22;62088;50.240;2.696;2022-09-03T07:34:06;18.30;80.90
73777;DHT22;62088;50.240;2.696;2022-09-03T07:36:44;18.40;81.10
73777;DHT22;62088;50.240;2.696;2022-09-03T07:39:15;18.40;81.20
73777;DHT22;62088;50.240;2.696;2022-09-03T07:41:45;18.40;81.30
73777;DHT22;62088;50.240;2.696;2022-09-03T07:44:14;18.50;81.40
73777;DHT22;62088;50.240;2.696;2022-09-03T07:46:45;18.60;81.50
73777;DHT22;62088;50.240;2.696;2022-09-03T07:49:14;18.70;81.60
73777;DHT22;62088;50.240;2.696;2022-09-03T07:51:41;18.70;81.60
73777;DHT22;62088;50.240;2.696;2022-09-03T07:54:09;18.70;81.70
73777;DHT22;62088;50.240;2.696;2022-09-03T07:56:39;18.80;81.70
73777;DHT22;62088;50.240;2.696;2022-09-03T07:59:07;18.90;81.70
73777;DHT22;62088;50.240;2.696;2022-09-03T08:01:36;18.90;81.70
73777;DHT22;62088;50.240;2.696;2022-09-03T08:04:08;18.90;81.70
73777;DHT22;62088;50.240;2.696;2022-09-03T08:06:36;19.00;81.70
73777;DHT22;62088;50.240;2.696;2022-09-03T08:09:06;19.10;81.80
73777;DHT22;62088;50.240;2.696;2022-09-03T08:11:36;19.10;81.90
73777;DHT22;62088;50.240;2.696;2022-09-03T08:14:06;19.20;81.90
73777;DHT22;62088;50.240;2.696;2022-09-03T08:16:36;19.30;81.90
73777;DHT22;62088;50.240;2.696;2022-09-03T08:19:03;19.40;82.00
73777;DHT22;62088;50.240;2.696;2022-09-03T08:21:31;19.40;82.10
73777;DHT22;62088;50.240;2.696;2022-09-03T08:23:58;19.40;82.00
73777;DHT22;62088;50.240;2.696;2022-09-03T08:26:36;19.50;81.90
73777;DHT22;62088;50.240;2.696;2022-09-03T08:29:05;19.70;81.90
73777;DHT22;62088;50.240;2.696;2022-09-03T08:31:33;19.70;81.80
73777;DHT22;62088;50.240;2.696;2022-09-03T08:34:02;19.80;81.90
73777;DHT22;62088;50.240;2.696;2022-09-03T08:36:34;19.90;81.70
73777;DHT22;62088;50.240;2.696;2022-09-03T08:39:04;19.90;81.50
73777;DHT22;62088;50.240;2.696;2022-09-03T08:44:32;20.00;81.20
73777;DHT22;62088;50.240;2.696;2022-09-03T08:47:13;20.10;81.10
73777;DHT22;62088;50.240;2.696;2022-09-03T08:50:10;20.20;81.10
73777;DHT22;62088;50.240;2.696;2022-09-03T08:52:48;20.30;81.00
73777;DHT22;62088;50.240;2.696;2022-09-03T08:55:27;20.40;80.80
73777;DHT22;62088;50.240;2.696;2022-09-03T08:58:10;20.50;80.70
73777;DHT22;62088;50.240;2.696;2022-09-03T09:11:48;20.90;79.50
73777;DHT22;62088;50.240;2.696;2022-09-03T09:14:26;21.00;79.40
73777;DHT22;62088;50.240;2.696;2022-09-03T09:17:03;21.10;79.30
73777;DHT22;62088;50.240;2.696;2022-09-03T09:19:37;21.30;78.90
73777;DHT22;62088;50.240;2.696;2022-09-03T09:22:13;21.40;78.30
73777;DHT22;62088;50.240;2.696;2022-09-03T09:24:45;21.40;77.70
73777;DHT22;62088;50.240;2.696;2022-09-03T09:27:15;21.50;77.40
73777;DHT22;62088;50.240;2.696;2022-09-03T09:29:47;21.60;77.20
73777;DHT22;62088;50.240;2.696;2022-09-03T09:32:18;21.70;77.10
73777;DHT22;62088;50.240;2.696;2022-09-03T09:34:47;21.70;77.00
73777;DHT22;62088;50.240;2.696;2022-09-03T09:37:18;21.80;76.70
73777;DHT22;62088;50.240;2.696;2022-09-03T09:39:57;21.80;76.20
73777;DHT22;62088;50.240;2.696;2022-09-03T09:42:25;21.90;75.80
73777;DHT22;62088;50.240;2.696;2022-09-03T09:44:53;21.90;75.60
73777;DHT22;62088;50.240;2.696;2022-09-03T09:47:29;21.90;75.40
73777;DHT22;62088;50.240;2.696;2022-09-03T09:49:59;22.00;75.40
73777;DHT22;62088;50.240;2.696;2022-09-03T09:52:28;22.10;75.50
73777;DHT22;62088;50.240;2.696;2022-09-03T09:55:13;22.10;75.60
73777;DHT22;62088;50.240;2.696;2022-09-03T09:57:40;22.20;75.40
73777;DHT22;62088;50.240;2.696;2022-09-03T10:00:16;22.30;75.20
73777;DHT22;62088;50.240;2.696;2022-09-03T10:02:49;22.40;75.00
73777;DHT22;62088;50.240;2.696;2022-09-03T10:10:27;22.50;74.30
73777;DHT22;62088;50.240;2.696;2022-09-03T10:13:00;22.60;74.00
73777;DHT22;62088;50.240;2.696;2022-09-03T10:21:14;22.90;73.30
73777;DHT22;62088;50.240;2.696;2022-09-03T10:26:35;23.20;72.50
73777;DHT22;62088;50.240;2.696;2022-09-03T10:29:04;23.30;71.70
73777;DHT22;62088;50.240;2.696;2022-09-03T10:34:29;23.40;71.10
73777;DHT22;62088;50.240;2.696;2022-09-03T10:56:53;23.90;68.50
73777;DHT22;62088;50.240;2.696;2022-09-03T11:02:01;23.90;67.10
73777;DHT22;62088;50.240;2.696;2022-09-03T11:04:54;23.90;66.50
73777;DHT22;62088;50.240;2.696;2022-09-03T11:07:30;23.90;65.70
73777;DHT22;62088;50.240;2.696;2022-09-03T11:12:54;23.90;66.30
73777;DHT22;62088;50.240;2.696;2022-09-03T11:15:51;23.90;66.80
73777;DHT22;62088;50.240;2.696;2022-09-03T11:20:55;24.00;66.60
73777;DHT22;62088;50.240;2.696;2022-09-03T11:23:32;23.90;66.60
73777;DHT22;62088;50.240;2.696;2022-09-03T11:26:06;24.00;66.70
73777;DHT22;62088;50.240;2.696;2022-09-03T11:31:32;24.00;66.80
73777;DHT22;62088;50.240;2.696;2022-09-03T11:34:07;24.00;66.60
73777;DHT22;62088;50.240;2.696;2022-09-03T11:36:47;23.90;66.40
73777;DHT22;62088;50.240;2.696;2022-09-03T11:42:26;23.90;66.70
73777;DHT22;62088;50.240;2.696;2022-09-03T11:44:51;23.80;66.60
73777;DHT22;62088;50.240;2.696;2022-09-03T11:49:50;23.70;66.70
73777;DHT22;62088;50.240;2.696;2022-09-03T11:52:29;23.70;66.80
73777;DHT22;62088;50.240;2.696;2022-09-03T11:54:58;23.70;66.80
73777;DHT22;62088;50.240;2.696;2022-09-03T11:57:30;23.70;66.90
73777;DHT22;62088;50.240;2.696;2022-09-03T12:00:15;23.70;67.00
73777;DHT22;62088;50.240;2.696;2022-09-03T12:02:51;23.60;67.20
73777;DHT22;62088;50.240;2.696;2022-09-03T12:05:51;23.70;67.60
73777;DHT22;62088;50.240;2.696;2022-09-03T12:11:40;23.90;67.70
73777;DHT22;62088;50.240;2.696;2022-09-03T12:16:55;24.10;67.20
73777;DHT22;62088;50.240;2.696;2022-09-03T12:19:50;24.10;66.90
73777;DHT22;62088;50.240;2.696;2022-09-03T12:22:25;24.20;66.50
73777;DHT22;62088;50.240;2.696;2022-09-03T12:24:54;24.20;66.00
73777;DHT22;62088;50.240;2.696;2022-09-03T12:27:25;24.30;65.50
73777;DHT22;62088;50.240;2.696;2022-09-03T12:29:58;24.30;65.20
73777;DHT22;62088;50.240;2.696;2022-09-03T12:32:28;24.30;65.10
73777;DHT22;62088;50.240;2.696;2022-09-03T12:35:08;24.30;65.20
73777;DHT22;62088;50.240;2.696;2022-09-03T12:37:36;24.40;65.00
73777;DHT22;62088;50.240;2.696;2022-09-03T12:40:28;24.30;64.50
73777;DHT22;62088;50.240;2.696;2022-09-03T12:43:12;24.30;63.90
73777;DHT22;62088;50.240;2.696;2022-09-03T12:45:59;24.30;64.10
73777;DHT22;62088;50.240;2.696;2022-09-03T12:49:06;24.40;64.10
73777;DHT22;62088;50.240;2.696;2022-09-03T12:52:10;24.40;64.60
73777;DHT22;62088;50.240;2.696;2022-09-03T12:55:31;24.50;64.70
73777;DHT22;62088;50.240;2.696;2022-09-03T12:57:40;24.50;64.60
73777;DHT22;62088;50.240;2.696;2022-09-03T13:00:13;24.60;64.50
73777;DHT22;62088;50.240;2.696;2022-09-03T13:05:31;24.70;64.30
73777;DHT22;62088;50.240;2.696;2022-09-03T13:07:59;24.80;64.30
73777;DHT22;62088;50.240;2.696;2022-09-03T13:10:35;24.80;64.30
73777;DHT22;62088;50.240;2.696;2022-09-03T13:13:20;24.80;64.00
73777;DHT22;62088;50.240;2.696;2022-09-03T13:19:16;24.80;63.20
73777;DHT22;62088;50.240;2.696;2022-09-03T13:22:23;24.80;63.20
73777;DHT22;62088;50.240;2.696;2022-09-03T13:36:13;24.90;62.90
73777;DHT22;62088;50.240;2.696;2022-09-03T13:38:57;24.90;62.80
73777;DHT22;62088;50.240;2.696;2022-09-03T13:41:51;25.00;62.80
73777;DHT22;62088;50.240;2.696;2022-09-03T13:45:28;25.00;63.00
73777;DHT22;62088;50.240;2.696;2022-09-03T13:47:43;25.00;63.60
73777;DHT22;62088;50.240;2.696;2022-09-03T13:50:38;24.90;64.30
73777;DHT22;62088;50.240;2.696;2022-09-03T13:53:17;24.90;64.70
73777;DHT22;62088;50.240;2.696;2022-09-03T13:55:53;24.80;65.10
73777;DHT22;62088;50.240;2.696;2022-09-03T13:58:37;24.80;65.20
73777;DHT22;62088;50.240;2.696;2022-09-03T14:01:16;24.80;65.50
73777;DHT22;62088;50.240;2.696;2022-09-03T14:07:07;24.60;67.40
73777;DHT22;62088;50.240;2.696;2022-09-03T14:09:50;24.40;68.10
73777;DHT22;62088;50.240;2.696;2022-09-03T14:12:40;24.30;69.10
73777;DHT22;62088;50.240;2.696;2022-09-03T14:15:42;24.20;69.80
73777;DHT22;62088;50.240;2.696;2022-09-03T14:23:39;24.00;71.50
73777;DHT22;62088;50.240;2.696;2022-09-03T14:26:16;23.90;71.90
73777;DHT22;62088;50.240;2.696;2022-09-03T14:28:48;23.90;72.10
73777;DHT22;62088;50.240;2.696;2022-09-03T14:31:49;23.90;72.30
73777;DHT22;62088;50.240;2.696;2022-09-03T15:07:34;23.90;74.60
73777;DHT22;62088;50.240;2.696;2022-09-03T15:10:20;23.90;74.80
73777;DHT22;62088;50.240;2.696;2022-09-03T15:12:56;23.80;74.90
73777;DHT22;62088;50.240;2.696;2022-09-03T15:15:32;23.80;74.90
73777;DHT22;62088;50.240;2.696;2022-09-03T15:18:31;23.80;74.90
73777;DHT22;62088;50.240;2.696;2022-09-03T15:21:44;23.70;74.30
73777;DHT22;62088;50.240;2.696;2022-09-03T15:30:13;23.40;71.90
73777;DHT22;62088;50.240;2.696;2022-09-03T15:35:37;23.30;71.10
73777;DHT22;62088;50.240;2.696;2022-09-03T15:38:18;23.20;70.30
73777;DHT22;62088;50.240;2.696;2022-09-03T15:43:29;23.00;70.00
73777;DHT22;62088;50.240;2.696;2022-09-03T15:46:01;23.00;70.20
73777;DHT22;62088;50.240;2.696;2022-09-03T15:48:55;23.10;70.30
73777;DHT22;62088;50.240;2.696;2022-09-03T15:54:20;23.20;70.50
73777;DHT22;62088;50.240;2.696;2022-09-03T15:57:06;23.20;70.80
73777;DHT22;62088;50.240;2.696;2022-09-03T16:02:39;23.40;69.20
73777;DHT22;62088;50.240;2.696;2022-09-03T16:08:06;23.50;68.40
73777;DHT22;62088;50.240;2.696;2022-09-03T16:10:55;23.50;68.30
73777;DHT22;62088;50.240;2.696;2022-09-03T16:16:05;23.60;67.30
73777;DHT22;62088;50.240;2.696;2022-09-03T16:21:28;23.70;66.50
73777;DHT22;62088;50.240;2.696;2022-09-03T16:26:50;23.70;66.40
73777;DHT22;62088;50.240;2.696;2022-09-03T16:29:25;23.70;66.70
73777;DHT22;62088;50.240;2.696;2022-09-03T16:40:33;23.40;68.20
73777;DHT22;62088;50.240;2.696;2022-09-03T16:43:25;23.50;68.50
73777;DHT22;62088;50.240;2.696;2022-09-03T16:51:38;23.40;69.20
73777;DHT22;62088;50.240;2.696;2022-09-03T16:54:19;23.30;69.20
73777;DHT22;62088;50.240;2.696;2022-09-03T16:59:27;23.30;69.00
73777;DHT22;62088;50.240;2.696;2022-09-03T17:16:41;22.90;69.70
73777;DHT22;62088;50.240;2.696;2022-09-03T17:19:34;22.90;69.90
73777;DHT22;62088;50.240;2.696;2022-09-03T17:27:53;22.90;70.50
73777;DHT22;62088;50.240;2.696;2022-09-03T17:30:04;22.90;70.60
73777;DHT22;62088;50.240;2.696;2022-09-03T17:52:21;22.60;71.50
73777;DHT22;62088;50.240;2.696;2022-09-03T17:54:57;22.60;71.60
73777;DHT22;62088;50.240;2.696;2022-09-03T17:57:29;22.60;71.60
73777;DHT22;62088;50.240;2.696;2022-09-03T18:00:03;22.60;71.70
73777;DHT22;62088;50.240;2.696;2022-09-03T18:02:38;22.60;71.80
73777;DHT22;62088;50.240;2.696;2022-09-03T18:05:16;22.50;71.80
73777;DHT22;62088;50.240;2.696;2022-09-03T18:16:01;22.40;72.00
73777;DHT22;62088;50.240;2.696;2022-09-03T18:18:37;22.40;72.00
73777;DHT22;62088;50.240;2.696;2022-09-03T18:21:11;22.30;72.00
73777;DHT22;62088;50.240;2.696;2022-09-03T18:24:52;22.30;72.00
73777;DHT22;62088;50.240;2.696;2022-09-03T18:27:36;22.30;72.20
73777;DHT22;62088;50.240;2.696;2022-09-03T18:30:24;22.20;72.30
73777;DHT22;62088;50.240;2.696;2022-09-03T18:33:13;22.20;72.40
73777;DHT22;62088;50.240;2.696;2022-09-03T18:36:00;22.10;72.60
73777;DHT22;62088;50.240;2.696;2022-09-03T18:38:46;22.10;72.60
73777;DHT22;62088;50.240;2.696;2022-09-03T18:41:51;22.00;72.60
73777;DHT22;62088;50.240;2.696;2022-09-03T18:55:55;21.90;73.20
73777;DHT22;62088;50.240;2.696;2022-09-03T19:01:54;21.80;73.40
73777;DHT22;62088;50.240;2.696;2022-09-03T19:08:01;21.60;73.80
73777;DHT22;62088;50.240;2.696;2022-09-03T19:13:45;21.50;74.60
73777;DHT22;62088;50.240;2.696;2022-09-03T19:20:12;21.40;75.20
73777;DHT22;62088;50.240;2.696;2022-09-03T19:23:02;21.40;75.50
73777;DHT22;62088;50.240;2.696;2022-09-03T19:25:50;21.40;75.70
73777;DHT22;62088;50.240;2.696;2022-09-03T19:28:40;21.40;75.90
73777;DHT22;62088;50.240;2.696;2022-09-03T19:31:53;21.40;76.20
73777;DHT22;62088;50.240;2.696;2022-09-03T19:37:56;21.30;76.60
73777;DHT22;62088;50.240;2.696;2022-09-03T19:46:48;21.20;77.00
73777;DHT22;62088;50.240;2.696;2022-09-03T19:55:32;21.10;77.10
73777;DHT22;62088;50.240;2.696;2022-09-03T19:58:21;21.10;77.20
73777;DHT22;62088;50.240;2.696;2022-09-03T20:01:11;21.10;77.20
73777;DHT22;62088;50.240;2.696;2022-09-03T20:03:59;21.00;77.20
73777;DHT22;62088;50.240;2.696;2022-09-03T20:06:48;21.00;77.20
73777;DHT22;62088;50.240;2.696;2022-09-03T20:09:38;20.90;77.20
73777;DHT22;62088;50.240;2.696;2022-09-03T20:12:30;20.90;77.20
73777;DHT22;62088;50.240;2.696;2022-09-03T20:15:03;20.90;77.20
73777;DHT22;62088;50.240;2.696;2022-09-03T20:23:11;20.80;77.30
73777;DHT22;62088;50.240;2.696;2022-09-03T20:28:32;20.70;77.30
73777;DHT22;62088;50.240;2.696;2022-09-03T20:31:23;20.70;77.30
73777;DHT22;62088;50.240;2.696;2022-09-03T20:37:23;20.70;77.30
73777;DHT22;62088;50.240;2.696;2022-09-03T20:45:23;20.60;77.40
73777;DHT22;62088;50.240;2.696;2022-09-03T20:51:34;20.60;77.60
73777;DHT22;62088;50.240;2.696;2022-09-03T20:54:03;20.50;77.70
73777;DHT22;62088;50.240;2.696;2022-09-03T20:56:44;20.50;77.80
73777;DHT22;62088;50.240;2.696;2022-09-03T20:59:29;20.50;77.90
73777;DHT22;62088;50.240;2.696;2022-09-03T21:05:02;20.40;78.00
73777;DHT22;62088;50.240;2.696;2022-09-03T21:10:26;20.40;78.00
73777;DHT22;62088;50.240;2.696;2022-09-03T21:16:44;20.30;78.10
73777;DHT22;62088;50.240;2.696;2022-09-03T21:24:48;20.20;78.10
73777;DHT22;62088;50.240;2.696;2022-09-03T21:27:20;20.20;78.00
73777;DHT22;62088;50.240;2.696;2022-09-03T21:30:15;20.10;78.00
73777;DHT22;62088;50.240;2.696;2022-09-03T21:32:58;20.10;77.90
73777;DHT22;62088;50.240;2.696;2022-09-03T21:35:50;20.10;77.90
73777;DHT22;62088;50.240;2.696;2022-09-03T21:38:27;20.10;77.80
73777;DHT22;62088;50.240;2.696;2022-09-03T21:43:37;20.00;77.50
73777;DHT22;62088;50.240;2.696;2022-09-03T21:46:29;20.00;77.50
73777;DHT22;62088;50.240;2.696;2022-09-03T21:49:09;20.00;77.50
73777;DHT22;62088;50.240;2.696;2022-09-03T21:51:43;19.90;77.50
73777;DHT22;62088;50.240;2.696;2022-09-03T21:54:17;19.90;77.50
73777;DHT22;62088;50.240;2.696;2022-09-03T21:57:02;19.90;77.50
73777;DHT22;62088;50.240;2.696;2022-09-03T22:00:10;19.90;77.40
73777;DHT22;62088;50.240;2.696;2022-09-03T22:02:38;19.80;77.40
73777;DHT22;62088;50.240;2.696;2022-09-03T22:05:06;19.70;77.40
73777;DHT22;62088;50.240;2.696;2022-09-03T22:10:33;19.70;77.60
73777;DHT22;62088;50.240;2.696;2022-09-03T22:16:11;19.60;77.50
73777;DHT22;62088;50.240;2.696;2022-09-03T22:18:40;19.60;77.30
73777;DHT22;62088;50.240;2.696;2022-09-03T22:24:14;19.50;77.20
73777;DHT22;62088;50.240;2.696;2022-09-03T22:35:26;19.40;77.20
73777;DHT22;62088;50.240;2.696;2022-09-03T22:46:47;19.30;77.20
73777;DHT22;62088;50.240;2.696;2022-09-03T22:49:41;19.30;77.20
73777;DHT22;62088;50.240;2.696;2022-09-03T22:52:35;19.30;77.20
73777;DHT22;62088;50.240;2.696;2022-09-03T22:55:19;19.20;77.20